createdAt,value
2018-03-26T00:04:50.173Z,100644.94
2018-03-26T00:09:44.478Z,100641.44
2018-03-26T00:14:38.828Z,100646.61
2018-03-26T00:19:33.299Z,100656.66
2018-03-26T00:24:27.627Z,100654.88
2018-03-26T00:29:21.934Z,100660.11
2018-03-26T00:34:16.249Z,100663.69
2018-03-26T00:39:10.575Z,100656.74
2018-03-26T00:44:05.671Z,100662.89
2018-03-26T00:48:59.999Z,100663.42
2018-03-26T00:53:54.358Z,100659.09
2018-03-26T00:58:48.669Z,100663.05
2018-03-26T01:03:43.064Z,100656.98
2018-03-26T01:08:37.370Z,100662.43
2018-03-26T01:13:31.796Z,100667.01
2018-03-26T01:18:26.883Z,100670.84
2018-03-26T01:23:21.220Z,100677.67
2018-03-26T01:28:15.923Z,100684.16
2018-03-26T01:33:11.082Z,100699.00
2018-03-26T01:38:05.283Z,100702.92
2018-03-26T01:42:59.600Z,100703.29
2018-03-26T01:47:54.015Z,100713.51
2018-03-26T01:52:48.324Z,100716.81
2018-03-26T01:57:42.632Z,100723.56
2018-03-26T02:02:36.944Z,100727.06
2018-03-26T02:07:32.034Z,100741.14
2018-03-26T02:12:26.345Z,100742.53
2018-03-26T02:17:20.643Z,100746.13
2018-03-26T02:22:17.232Z,100748.06
2018-03-26T02:27:12.311Z,100753.98
2018-03-26T02:32:06.663Z,100757.73
2018-03-26T02:37:01.038Z,100757.02
2018-03-26T02:41:55.357Z,100753.22
2018-03-26T02:46:50.435Z,100763.08
2018-03-26T02:51:44.950Z,100768.22
2018-03-26T02:56:39.274Z,100765.39
2018-03-26T03:01:34.364Z,100776.30
2018-03-26T03:06:28.678Z,100781.72
2018-03-26T03:11:23.008Z,100777.47
2018-03-26T03:16:18.080Z,100787.66
2018-03-26T03:21:13.848Z,100784.78
2018-03-26T03:26:08.908Z,100787.72
2018-03-26T03:31:03.329Z,100791.88
2018-03-26T03:35:57.651Z,100794.68
2018-03-26T03:40:52.036Z,100807.98
2018-03-26T03:45:46.348Z,100801.11
2018-03-26T03:50:40.683Z,100801.23
2018-03-26T03:55:35.766Z,100805.19
2018-03-26T04:00:30.162Z,100808.32
2018-03-26T04:05:24.543Z,100805.39
2018-03-26T04:10:19.596Z,100805.05
2018-03-26T04:15:13.905Z,100817.92
2018-03-26T04:20:08.052Z,100824.77
2018-03-26T04:25:02.483Z,100824.15
2018-03-26T04:29:56.816Z,100831.92
2018-03-26T04:34:51.328Z,100838.82
2018-03-26T04:39:46.525Z,100838.20
2018-03-26T04:44:40.840Z,100844.00
2018-03-26T04:49:35.917Z,100845.52
2018-03-26T04:54:30.226Z,100852.73
2018-03-26T04:59:24.576Z,100855.61
2018-03-26T05:04:19.654Z,100857.19
2018-03-26T05:09:13.982Z,100855.76
2018-03-26T05:14:08.410Z,100862.08
2018-03-26T05:19:02.722Z,100864.94
2018-03-26T05:23:57.078Z,100873.02
2018-03-26T05:28:51.625Z,100880.36
2018-03-26T05:33:46.718Z,100893.27
2018-03-26T05:38:41.345Z,100897.79
2018-03-26T05:43:36.442Z,100903.14
2018-03-26T05:48:30.830Z,100909.44
2018-03-26T05:53:25.130Z,100913.92
2018-03-26T05:58:20.403Z,100931.02
2018-03-26T06:03:14.796Z,100935.14
2018-03-26T06:08:09.922Z,100947.50
2018-03-26T06:13:04.251Z,100945.91
2018-03-26T06:17:58.566Z,100948.20
2018-03-26T06:22:52.687Z,100956.34
2018-03-26T06:27:46.814Z,100962.53
2018-03-26T06:32:41.911Z,100969.81
2018-03-26T06:53:24.316Z,100988.75
2018-03-26T06:58:18.750Z,100988.33
2018-03-26T07:03:12.876Z,100998.28
2018-03-26T07:08:07.609Z,100996.09
2018-03-26T07:13:02.050Z,100999.81
2018-03-26T07:17:56.445Z,101000.53
2018-03-26T07:22:50.766Z,101011.38
2018-03-26T07:27:45.853Z,101013.75
2018-03-26T07:32:40.210Z,101027.44
2018-03-26T07:37:35.278Z,101025.29
2018-03-26T07:42:29.605Z,101030.03
2018-03-26T07:47:24.024Z,101029.34
2018-03-26T07:52:18.870Z,101035.73
2018-03-26T07:57:13.159Z,101046.45
2018-03-26T08:02:07.556Z,101046.02
2018-03-26T08:07:01.680Z,101056.36
2018-03-26T08:11:56.008Z,101066.17
2018-03-26T08:16:50.346Z,101070.67
2018-03-26T08:21:44.828Z,101070.26
2018-03-26T08:26:39.172Z,101079.53
2018-03-26T08:31:33.497Z,101080.38
2018-03-26T08:36:27.883Z,101084.09
2018-03-26T08:41:22.684Z,101074.94
2018-03-26T08:46:17.119Z,101081.76
2018-03-26T08:51:11.450Z,101076.27
2018-03-26T08:56:05.542Z,101072.39
2018-03-26T09:01:00.650Z,101069.50
2018-03-26T09:05:54.995Z,101079.73
2018-03-26T09:10:50.085Z,101072.19
2018-03-26T09:15:44.577Z,101068.21
2018-03-26T09:20:45.608Z,101060.08
2018-03-26T09:25:39.991Z,101058.16
2018-03-26T09:30:34.443Z,101064.59
2018-03-26T09:35:29.048Z,101066.56
2018-03-26T09:40:24.050Z,101065.27
2018-03-26T09:45:18.805Z,101063.45
2018-03-26T09:50:13.564Z,101065.80
2018-03-26T09:55:07.995Z,101065.09
2018-03-26T10:00:02.844Z,101057.19
2018-03-26T10:04:58.037Z,101060.38
2018-03-26T10:09:52.349Z,101065.64
2018-03-26T10:14:46.699Z,101070.21
2018-03-26T10:19:42.050Z,101065.16
2018-03-26T10:24:36.520Z,101063.86
2018-03-26T10:29:30.838Z,101063.25
2018-03-26T10:34:25.124Z,101075.28
2018-03-26T10:39:19.646Z,101080.84
2018-03-26T10:44:13.743Z,101076.41
2018-03-26T10:49:08.298Z,101062.14
2018-03-26T10:54:03.556Z,101070.64
2018-03-26T10:58:58.221Z,101068.37
2018-03-26T11:03:52.705Z,101072.84
2018-03-26T11:08:47.105Z,101074.41
2018-03-26T11:13:41.436Z,101071.92
2018-03-26T11:18:36.585Z,101080.92
2018-03-26T11:23:30.908Z,101086.35
2018-03-26T11:28:25.211Z,101081.18
2018-03-26T11:33:19.538Z,101073.08
2018-03-26T11:38:13.964Z,101084.49
2018-03-26T11:43:08.508Z,101079.81
2018-03-26T11:48:02.844Z,101071.31
2018-03-26T11:52:57.162Z,101077.48
2018-03-26T11:57:51.658Z,101069.53
2018-03-26T12:02:45.552Z,101069.45
2018-03-26T12:07:40.028Z,101062.20
2018-03-26T12:12:34.366Z,101074.19
2018-03-26T12:17:28.710Z,101067.69
2018-03-26T12:22:23.098Z,101062.47
2018-03-26T12:27:19.201Z,101071.48
2018-03-26T12:32:13.597Z,101065.94
2018-03-26T12:37:08.002Z,101067.59
2018-03-26T12:42:02.399Z,101069.08
2018-03-26T12:46:56.706Z,101070.48
2018-03-26T12:52:07.988Z,101066.78
2018-03-26T12:57:19.518Z,101075.48
2018-03-26T13:02:37.282Z,101071.83
2018-03-26T13:07:31.831Z,101071.70
2018-03-26T13:12:26.150Z,101068.02
2018-03-26T13:17:20.536Z,101074.33
2018-03-26T13:22:14.688Z,101057.13
2018-03-26T13:27:09.037Z,101062.28
2018-03-26T13:32:03.480Z,101064.95
2018-03-26T13:36:58.477Z,101068.34
2018-03-26T13:41:53.185Z,101064.84
2018-03-26T13:46:48.612Z,101072.98
2018-03-26T13:51:42.770Z,101072.67
2018-03-26T13:56:38.425Z,101072.86
2018-03-26T14:01:32.799Z,101071.70
2018-03-26T14:06:27.879Z,101079.27
2018-03-26T14:11:39.370Z,101079.06
2018-03-26T14:16:51.532Z,101071.50
2018-03-26T14:21:46.624Z,101077.14
2018-03-26T14:26:42.719Z,101084.64
2018-03-26T14:31:38.226Z,101084.84
2018-03-26T14:36:32.940Z,101089.50
2018-03-26T14:41:27.625Z,101097.14
2018-03-26T14:46:22.043Z,101084.48
2018-03-26T14:51:16.437Z,101083.95
2018-03-26T14:56:10.932Z,101084.39
2018-03-26T15:01:05.329Z,101082.64
2018-03-26T15:05:59.810Z,101089.71
2018-03-26T15:10:56.062Z,101081.40
2018-03-26T15:15:50.370Z,101091.17
2018-03-26T15:20:44.686Z,101083.91
2018-03-26T15:25:39.069Z,101087.19
2018-03-26T15:30:33.386Z,101083.94
2018-03-26T15:35:27.712Z,101076.47
2018-03-26T15:40:22.049Z,101077.94
2018-03-26T15:45:16.418Z,101075.38
2018-03-26T15:50:10.752Z,101070.14
2018-03-26T15:55:05.112Z,101079.17
2018-03-26T16:00:00.138Z,101078.98
2018-03-26T16:04:54.443Z,101075.12
2018-03-26T16:09:49.667Z,101083.66
2018-03-26T16:14:44.108Z,101087.69
2018-03-26T16:19:38.490Z,101095.30
2018-03-26T16:24:33.648Z,101091.88
2018-03-26T16:29:28.163Z,101098.73
2018-03-26T16:34:22.518Z,101100.08
2018-03-26T16:39:17.929Z,101094.98
2018-03-26T16:44:13.242Z,101096.95
2018-03-26T16:49:07.703Z,101097.51
2018-03-26T16:54:02.148Z,101106.45
2018-03-26T16:58:58.033Z,101095.92
2018-03-26T17:03:52.467Z,101103.77
2018-03-26T17:08:46.843Z,101101.73
2018-03-26T17:13:41.223Z,101100.05
2018-03-26T17:18:36.453Z,101098.27
2018-03-26T17:45:11.081Z,101102.88
2018-03-26T17:50:05.625Z,101109.27
2018-03-26T17:54:59.970Z,101107.75
2018-03-26T17:59:54.779Z,101108.64
2018-03-26T18:04:49.455Z,101108.18
2018-03-26T18:09:44.918Z,101109.94
2018-03-26T18:14:39.646Z,101112.13
2018-03-26T18:19:33.988Z,101108.97
2018-03-26T18:24:28.665Z,101107.16
2018-03-26T18:29:22.836Z,101116.91
2018-03-26T18:34:17.216Z,101121.25
2018-03-26T18:39:12.505Z,101122.94
2018-03-26T18:44:06.887Z,101118.94
2018-03-26T18:49:01.314Z,101115.51
2018-03-26T18:53:55.777Z,101116.09
2018-03-26T18:58:50.345Z,101116.95
2018-03-26T19:03:45.808Z,101113.80
2018-03-26T19:08:40.343Z,101114.48
2018-03-26T19:13:34.600Z,101115.52
2018-03-26T19:18:29.779Z,101111.98
2018-03-26T19:23:24.210Z,101117.11
2018-03-26T19:28:19.456Z,101120.92
2018-03-26T19:33:14.028Z,101114.58
2018-03-26T19:38:08.556Z,101118.81
2018-03-26T19:43:03.696Z,101121.66
2018-03-26T19:47:58.132Z,101129.59
2018-03-26T19:52:52.696Z,101134.96
2018-03-26T19:57:48.224Z,101141.73
2018-03-26T20:02:43.480Z,101146.28
2018-03-26T20:07:37.883Z,101149.16
2018-03-26T20:12:32.290Z,101146.61
2018-03-26T20:17:26.634Z,101149.09
2018-03-26T20:22:21.017Z,101145.30
2018-03-26T20:27:15.393Z,101147.36
2018-03-26T20:32:09.748Z,101156.72
2018-03-26T20:37:04.886Z,101162.20
2018-03-26T20:42:00.448Z,101165.49
2018-03-26T20:46:56.437Z,101172.85
2018-03-26T20:51:51.751Z,101171.15
2018-03-26T20:56:46.426Z,101170.28
2018-03-26T21:01:40.829Z,101171.31
2018-03-26T21:06:35.227Z,101165.72
2018-03-26T21:11:29.577Z,101168.52
2018-03-26T21:16:24.769Z,101161.69
2018-03-26T21:21:19.137Z,101164.50
2018-03-26T21:26:13.540Z,101155.02
2018-03-26T21:31:07.902Z,101157.97
2018-03-26T21:36:02.270Z,101157.02
2018-03-26T21:40:56.637Z,101151.92
2018-03-26T21:45:51.220Z,101154.70
2018-03-26T21:50:46.460Z,101148.67
2018-03-26T21:55:40.872Z,101153.81
2018-03-26T22:00:35.239Z,101148.08
2018-03-26T22:05:30.495Z,101142.58
2018-03-26T22:10:25.135Z,101157.01
2018-03-26T22:15:24.321Z,101154.30
2018-03-26T22:20:21.427Z,101160.67
2018-03-26T22:25:15.885Z,101148.75
2018-03-26T22:30:10.305Z,101143.55
2018-03-26T22:35:04.728Z,101138.55
2018-03-26T22:39:59.244Z,101141.92
2018-03-26T22:44:53.602Z,101142.58
2018-03-26T22:49:47.962Z,101151.47
2018-03-26T22:54:42.310Z,101150.30
2018-03-26T22:59:37.463Z,101148.30
2018-03-26T23:04:31.848Z,101149.73
2018-03-26T23:09:26.204Z,101150.62
2018-03-26T23:14:20.596Z,101150.00
2018-03-26T23:19:14.964Z,101152.91
2018-03-26T23:24:09.542Z,101153.33
2018-03-26T23:29:04.655Z,101154.59
2018-03-26T23:33:59.792Z,101154.12
2018-03-26T23:38:54.195Z,101157.07
2018-03-26T23:43:48.618Z,101155.14
2018-03-26T23:48:43.002Z,101152.37
2018-03-26T23:53:37.356Z,101157.06
2018-03-26T23:58:31.707Z,101156.48
